createdAt,value
2023-03-27T00:01:14.961Z,35.47
2023-03-27T00:03:16.984Z,36.88
2023-03-27T00:05:22.567Z,37.95
2023-03-27T00:07:24.009Z,33.80
2023-03-27T00:09:26.376Z,32.28
2023-03-27T00:11:29.247Z,24.23
2023-03-27T00:13:31.555Z,22.35
2023-03-27T00:15:34.308Z,23.83
2023-03-27T00:17:36.966Z,25.92
2023-03-27T00:19:38.768Z,26.30
2023-03-27T00:21:40.550Z,32.30
2023-03-27T00:23:42.415Z,31.33
2023-03-27T00:25:43.993Z,35.33
2023-03-27T00:27:45.426Z,29.10
2023-03-27T00:29:47.159Z,25.95
2023-03-27T00:31:48.534Z,24.65
2023-03-27T00:33:50.087Z,22.75
2023-03-27T00:35:51.944Z,21.95
2023-03-27T00:37:53.915Z,20.30
2023-03-27T00:39:55.787Z,21.05
2023-03-27T00:41:57.345Z,19.80
2023-03-27T00:43:59.027Z,22.58
2023-03-27T00:46:08.207Z,20.52
2023-03-27T00:48:10.097Z,23.02
2023-03-27T00:50:14.468Z,22.70
2023-03-27T00:52:16.852Z,28.15
2023-03-27T00:54:22.033Z,25.92
2023-03-27T00:56:24.552Z,23.95
2023-03-27T00:58:28.279Z,25.23
2023-03-27T01:00:30.032Z,25.15
2023-03-27T01:02:31.563Z,28.98
2023-03-27T01:04:33.993Z,31.30
2023-03-27T01:06:36.806Z,37.65
2023-03-27T01:08:38.521Z,32.33
2023-03-27T01:10:49.805Z,32.45
2023-03-27T01:12:51.450Z,29.13
2023-03-27T01:14:52.893Z,31.13
2023-03-27T01:17:06.578Z,25.95
2023-03-27T01:19:26.702Z,30.15
2023-03-27T01:21:47.860Z,32.08
2023-03-27T01:24:08.579Z,32.67
2023-03-27T01:26:36.034Z,34.15
2023-03-27T01:28:38.700Z,34.97
2023-03-27T01:30:43.344Z,37.03
2023-03-27T01:32:52.759Z,36.72
2023-03-27T01:35:03.477Z,38.53
2023-03-27T01:37:08.040Z,40.47
2023-03-27T01:39:10.085Z,41.25
2023-03-27T01:41:20.369Z,37.03
2023-03-27T01:43:31.006Z,35.45
2023-03-27T01:45:32.399Z,31.98
2023-03-27T01:47:47.648Z,32.10
2023-03-27T01:49:55.357Z,35.63
2023-03-27T01:51:59.330Z,35.85
2023-03-27T01:54:15.447Z,34.10
2023-03-27T01:56:26.261Z,30.55
2023-03-27T01:58:33.316Z,31.08
2023-03-27T02:00:52.501Z,29.20
2023-03-27T02:03:00.308Z,27.67
2023-03-27T02:05:04.721Z,27.65
2023-03-27T02:07:11.018Z,27.80
2023-03-27T02:09:15.941Z,22.40
2023-03-27T02:11:17.643Z,21.08
2023-03-27T02:13:39.315Z,23.63
2023-03-27T02:15:42.714Z,23.30
2023-03-27T02:17:47.487Z,21.63
2023-03-27T02:19:54.472Z,20.80
2023-03-27T02:21:55.917Z,22.55
2023-03-27T02:23:57.359Z,26.10
2023-03-27T02:26:00.136Z,33.00
2023-03-27T02:28:25.541Z,28.80
2023-03-27T02:30:29.303Z,28.70
2023-03-27T02:32:33.706Z,28.63
2023-03-27T02:34:35.212Z,28.10
2023-03-27T02:37:06.095Z,27.67
2023-03-27T02:39:11.173Z,26.63
2023-03-27T02:41:20.629Z,39.85
2023-03-27T02:43:27.025Z,32.90
2023-03-27T02:45:37.424Z,26.40
2023-03-27T02:47:44.086Z,21.98
2023-03-27T02:49:51.391Z,21.42
2023-03-27T02:52:00.578Z,22.02
2023-03-27T02:54:04.771Z,23.27
2023-03-27T02:56:07.879Z,23.73
2023-03-27T02:58:12.580Z,27.83
2023-03-27T03:00:25.954Z,33.50
2023-03-27T03:02:30.344Z,34.50
2023-03-27T03:04:41.682Z,39.95
2023-03-27T03:06:43.532Z,29.35
2023-03-27T03:08:46.768Z,27.75
2023-03-27T03:10:48.346Z,23.15
2023-03-27T03:12:49.740Z,24.95
2023-03-27T03:14:51.468Z,24.38
2023-03-27T03:16:53.097Z,23.90
2023-03-27T03:18:54.648Z,20.85
2023-03-27T03:20:56.301Z,21.58
2023-03-27T03:22:57.876Z,20.17
2023-03-27T03:24:59.307Z,22.23
2023-03-27T03:27:00.851Z,20.45
2023-03-27T03:29:02.264Z,19.48
2023-03-27T03:31:04.901Z,20.33
2023-03-27T03:33:06.463Z,21.38
2023-03-27T03:35:09.827Z,24.05
2023-03-27T03:37:11.218Z,22.20
2023-03-27T03:39:12.910Z,23.30
2023-03-27T03:41:14.357Z,24.42
2023-03-27T03:43:15.927Z,23.27
2023-03-27T03:45:18.099Z,24.55
2023-03-27T03:47:19.608Z,30.52
2023-03-27T03:49:21.218Z,28.55
2023-03-27T03:51:22.879Z,27.13
2023-03-27T03:53:24.305Z,25.15
2023-03-27T03:55:25.785Z,24.13
2023-03-27T03:57:28.106Z,26.15
2023-03-27T03:59:30.106Z,29.50
2023-03-27T04:01:31.628Z,34.35
2023-03-27T04:03:34.078Z,38.08
2023-03-27T04:05:36.740Z,33.10
2023-03-27T04:07:40.076Z,30.02
2023-03-27T04:09:41.785Z,26.02
2023-03-27T04:11:43.207Z,26.30
2023-03-27T04:13:44.619Z,28.55
2023-03-27T04:15:46.124Z,27.50
2023-03-27T04:17:48.730Z,31.90
2023-03-27T04:19:50.238Z,29.40
2023-03-27T04:21:54.551Z,23.58
2023-03-27T04:24:02.329Z,22.25
2023-03-27T04:26:04.215Z,19.15
2023-03-27T04:28:05.818Z,22.58
2023-03-27T04:30:10.378Z,21.75
2023-03-27T04:32:11.800Z,20.80
2023-03-27T04:34:13.254Z,25.13
2023-03-27T04:36:14.916Z,27.42
2023-03-27T04:38:17.072Z,36.65
2023-03-27T04:40:18.508Z,37.28
2023-03-27T04:42:23.476Z,35.75
2023-03-27T04:44:25.067Z,36.95
2023-03-27T04:46:26.533Z,30.77
2023-03-27T04:48:29.781Z,34.22
2023-03-27T04:50:31.448Z,43.33
2023-03-27T04:52:33.549Z,35.58
2023-03-27T04:54:35.566Z,47.33
2023-03-27T04:56:37.037Z,37.80
2023-03-27T04:58:41.191Z,39.88
2023-03-27T05:00:43.172Z,77.28
2023-03-27T05:02:48.105Z,49.55
2023-03-27T05:04:49.518Z,40.30
2023-03-27T05:06:50.954Z,35.70
2023-03-27T05:08:52.489Z,33.30
2023-03-27T05:10:54.022Z,34.15
2023-03-27T05:12:57.875Z,35.70
2023-03-27T05:15:00.658Z,49.30
2023-03-27T05:17:02.392Z,48.05
2023-03-27T05:19:03.823Z,60.67
2023-03-27T05:21:05.343Z,61.67
2023-03-27T05:23:06.907Z,39.28
2023-03-27T05:25:08.608Z,36.65
2023-03-27T05:27:10.327Z,33.40
2023-03-27T05:29:11.714Z,29.92
2023-03-27T05:31:13.252Z,31.73
2023-03-27T05:33:14.714Z,29.25
2023-03-27T05:35:18.123Z,35.20
2023-03-27T05:37:19.735Z,37.85
2023-03-27T05:39:22.068Z,32.75
2023-03-27T05:41:24.303Z,28.95
2023-03-27T05:43:26.533Z,35.47
2023-03-27T05:45:27.986Z,32.30
2023-03-27T05:47:29.455Z,29.95
2023-03-27T05:49:33.547Z,29.35
2023-03-27T05:51:35.930Z,37.85
2023-03-27T05:53:40.676Z,32.53
2023-03-27T05:55:42.088Z,24.50
2023-03-27T05:57:43.613Z,26.10
2023-03-27T05:59:45.036Z,24.48
2023-03-27T06:01:46.643Z,26.50
2023-03-27T06:03:49.419Z,23.08
2023-03-27T06:05:51.117Z,22.70
2023-03-27T06:07:52.575Z,26.42
2023-03-27T06:09:54.191Z,24.15
2023-03-27T06:11:55.691Z,23.15
2023-03-27T06:13:58.471Z,36.00
2023-03-27T06:16:00.567Z,33.72
2023-03-27T06:18:02.543Z,24.05
2023-03-27T06:20:12.488Z,28.85
2023-03-27T06:22:14.175Z,45.28
2023-03-27T06:24:16.771Z,51.67
2023-03-27T06:26:19.009Z,25.58
2023-03-27T06:28:20.763Z,34.28
2023-03-27T06:30:23.558Z,23.92
2023-03-27T06:32:27.200Z,27.70
2023-03-27T06:34:29.100Z,26.52
2023-03-27T06:36:32.459Z,25.00
2023-03-27T06:38:33.922Z,24.15
2023-03-27T06:40:35.483Z,30.15
2023-03-27T06:42:37.987Z,22.88
2023-03-27T06:44:39.438Z,20.80
2023-03-27T06:46:45.456Z,29.35
2023-03-27T06:48:51.021Z,21.15
2023-03-27T06:50:52.840Z,27.52
2023-03-27T06:52:54.293Z,21.27
2023-03-27T06:54:55.813Z,22.25
2023-03-27T06:57:00.871Z,21.42
2023-03-27T06:59:02.279Z,21.80
2023-03-27T07:01:03.704Z,23.25
2023-03-27T07:03:08.212Z,12.10
2023-03-27T07:05:10.021Z,20.58
2023-03-27T07:07:11.606Z,9.63
2023-03-27T07:09:13.430Z,16.90
2023-03-27T07:11:15.126Z,11.38
2023-03-27T07:13:16.733Z,18.20
2023-03-27T07:15:18.760Z,14.75
2023-03-27T07:17:20.157Z,20.65
2023-03-27T07:19:21.651Z,25.38
2023-03-27T07:21:23.134Z,19.45
2023-03-27T07:23:24.578Z,18.45
2023-03-27T07:25:32.696Z,16.90
2023-03-27T07:27:34.262Z,28.52
2023-03-27T07:29:37.070Z,24.77
2023-03-27T07:31:55.367Z,31.83
2023-03-27T07:35:59.928Z,23.38
2023-03-27T07:38:01.930Z,18.63
2023-03-27T07:40:07.705Z,33.72
2023-03-27T07:42:09.356Z,37.95
2023-03-27T07:44:11.242Z,32.08
2023-03-27T07:46:12.771Z,29.80
2023-03-27T07:48:18.766Z,36.70
2023-03-27T07:50:21.772Z,34.00
2023-03-27T07:52:23.437Z,41.55
2023-03-27T07:54:24.913Z,15.68
2023-03-27T07:56:26.645Z,38.95
2023-03-27T07:58:28.260Z,34.53
2023-03-27T08:00:31.129Z,28.80
2023-03-27T08:02:32.810Z,21.77
2023-03-27T08:04:34.347Z,27.13
2023-03-27T08:06:35.825Z,27.45
2023-03-27T08:08:37.483Z,26.70
2023-03-27T08:10:39.064Z,20.27
2023-03-27T08:12:40.631Z,18.48
2023-03-27T08:14:42.159Z,17.10
2023-03-27T08:16:43.633Z,25.90
2023-03-27T08:18:46.856Z,17.45
2023-03-27T08:20:49.755Z,12.98
2023-03-27T08:22:52.610Z,24.52
2023-03-27T08:24:54.148Z,25.55
2023-03-27T08:26:55.657Z,16.25
2023-03-27T08:28:57.276Z,16.15
2023-03-27T08:31:02.916Z,20.40
2023-03-27T08:33:04.996Z,12.55
2023-03-27T08:35:07.498Z,11.30
2023-03-27T08:37:08.956Z,12.93
2023-03-27T08:39:11.104Z,12.55
2023-03-27T08:41:24.267Z,16.48
2023-03-27T08:43:28.574Z,22.90
2023-03-27T08:45:32.568Z,12.57
2023-03-27T08:47:36.178Z,11.80
2023-03-27T08:49:49.822Z,9.85
2023-03-27T08:52:03.974Z,17.85
2023-03-27T08:54:11.404Z,15.50
2023-03-27T08:56:16.352Z,11.10
2023-03-27T08:58:21.764Z,15.75
2023-03-27T09:00:26.443Z,16.85
2023-03-27T09:02:50.539Z,12.55
2023-03-27T09:05:01.738Z,20.05
2023-03-27T09:07:15.410Z,19.80
2023-03-27T09:09:19.664Z,13.60
2023-03-27T09:11:21.829Z,11.65
2023-03-27T09:13:32.724Z,20.75
2023-03-27T09:15:36.957Z,21.85
2023-03-27T09:17:48.294Z,13.27
2023-03-27T09:19:49.768Z,16.73
2023-03-27T09:22:04.333Z,16.60
2023-03-27T09:24:32.125Z,11.50
2023-03-27T09:26:36.648Z,13.30
2023-03-27T09:28:52.051Z,15.25
2023-03-27T09:31:13.892Z,15.95
2023-03-27T09:33:16.215Z,8.45
2023-03-27T09:35:32.257Z,8.43
2023-03-27T09:37:44.389Z,7.63
2023-03-27T09:39:57.410Z,5.40
2023-03-27T09:42:00.878Z,6.97
2023-03-27T09:44:08.821Z,6.03
2023-03-27T09:46:12.232Z,6.80
2023-03-27T09:48:37.038Z,8.40
2023-03-27T09:50:44.411Z,12.45
2023-03-27T09:52:45.903Z,23.70
2023-03-27T09:54:52.066Z,22.67
2023-03-27T09:56:55.347Z,26.40
2023-03-27T09:58:57.776Z,23.15
2023-03-27T10:01:34.900Z,18.95
2023-03-27T10:03:41.082Z,20.77
2023-03-27T10:08:19.680Z,9.48
2023-03-27T10:10:26.775Z,15.95
2023-03-27T10:12:28.389Z,9.48
2023-03-27T10:14:32.845Z,11.88
2023-03-27T10:16:39.040Z,11.05
2023-03-27T10:18:43.181Z,10.82
2023-03-27T10:20:54.885Z,10.35
2023-03-27T10:23:09.502Z,10.80
2023-03-27T10:25:26.406Z,7.63
2023-03-27T10:27:30.151Z,7.38
2023-03-27T10:29:37.103Z,7.60
2023-03-27T10:31:53.270Z,8.13
2023-03-27T10:34:08.881Z,6.00
2023-03-27T10:36:22.815Z,6.55
2023-03-27T10:38:35.876Z,8.70
2023-03-27T10:40:50.785Z,4.50
2023-03-27T10:43:07.869Z,5.65
2023-03-27T10:45:22.326Z,5.85
2023-03-27T10:47:34.642Z,2.63
2023-03-27T10:49:36.333Z,4.18
2023-03-27T10:52:10.061Z,3.55
2023-03-27T10:54:31.815Z,4.53
2023-03-27T10:56:42.459Z,4.10
2023-03-27T10:58:53.519Z,2.70
2023-03-27T11:01:13.652Z,6.47
2023-03-27T11:03:30.116Z,3.08
2023-03-27T11:05:43.307Z,4.32
2023-03-27T11:08:00.456Z,3.45
2023-03-27T11:10:12.066Z,4.13
2023-03-27T11:12:33.245Z,3.60
2023-03-27T11:14:44.145Z,3.70
2023-03-27T11:16:57.150Z,3.42
2023-03-27T11:19:10.772Z,1.58
2023-03-27T11:21:26.206Z,2.10
2023-03-27T11:23:42.474Z,3.53
2023-03-27T11:25:59.107Z,2.55
2023-03-27T11:28:19.217Z,3.10
2023-03-27T11:30:38.859Z,2.15
2023-03-27T11:32:43.296Z,2.90
2023-03-27T11:34:58.024Z,2.70
2023-03-27T11:37:16.843Z,1.73
2023-03-27T11:39:30.569Z,3.60
2023-03-27T11:41:41.781Z,2.50
2023-03-27T11:48:33.178Z,1.85
2023-03-27T11:51:00.762Z,2.20
2023-03-27T11:53:11.581Z,2.05
2023-03-27T11:55:19.631Z,2.72
2023-03-27T11:57:29.906Z,1.95
2023-03-27T11:59:57.313Z,1.75
2023-03-27T12:02:13.984Z,2.03
2023-03-27T12:04:48.511Z,2.28
2023-03-27T12:06:57.032Z,2.63
2023-03-27T12:09:04.107Z,2.30
2023-03-27T12:11:06.019Z,3.05
2023-03-27T12:13:34.847Z,2.80
2023-03-27T12:15:52.008Z,2.30
2023-03-27T12:17:54.264Z,2.75
2023-03-27T12:20:01.714Z,5.22
2023-03-27T12:24:53.392Z,2.53
2023-03-27T12:27:11.992Z,3.42
2023-03-27T12:29:24.460Z,2.92
2023-03-27T12:31:37.172Z,1.73
2023-03-27T12:33:47.338Z,3.80
2023-03-27T12:35:50.462Z,1.85
2023-03-27T12:38:03.266Z,2.92
2023-03-27T12:40:20.820Z,2.20
2023-03-27T12:42:43.631Z,2.40
2023-03-27T12:45:05.239Z,2.80
2023-03-27T12:47:24.529Z,2.47
2023-03-27T12:49:34.170Z,2.63
2023-03-27T12:51:44.290Z,2.13
2023-03-27T12:53:50.174Z,3.00
2023-03-27T12:56:12.402Z,1.80
2023-03-27T12:58:31.851Z,1.92
2023-03-27T13:00:34.323Z,2.00
2023-03-27T13:02:56.344Z,1.48
2023-03-27T13:05:13.559Z,3.25
2023-03-27T13:07:33.839Z,3.13
2023-03-27T13:09:44.975Z,2.35
2023-03-27T13:11:52.260Z,2.30
2023-03-27T13:14:13.038Z,3.80
2023-03-27T13:16:30.961Z,2.75
2023-03-27T13:18:35.469Z,2.70
2023-03-27T13:20:52.082Z,2.35
2023-03-27T13:23:13.791Z,2.80
2023-03-27T13:25:24.494Z,1.90
2023-03-27T13:27:40.818Z,2.35
2023-03-27T13:29:51.516Z,2.47
2023-03-27T13:32:13.199Z,1.92
2023-03-27T13:34:27.073Z,7.22
2023-03-27T13:36:41.112Z,3.65
2023-03-27T13:38:54.024Z,2.45
2023-03-27T13:41:14.226Z,4.68
2023-03-27T13:43:24.170Z,2.42
2023-03-27T13:45:41.601Z,2.25
2023-03-27T13:47:52.037Z,8.60
2023-03-27T13:50:15.214Z,2.88
2023-03-27T13:52:29.360Z,3.83
2023-03-27T13:54:49.540Z,2.08
2023-03-27T13:57:00.276Z,1.60
2023-03-27T13:59:07.914Z,3.72
2023-03-27T14:01:25.288Z,4.22
2023-03-27T14:03:45.266Z,3.20
2023-03-27T14:06:03.087Z,2.38
2023-03-27T14:08:23.439Z,2.35
2023-03-27T14:10:43.113Z,2.95
2023-03-27T14:15:04.393Z,1.30
2023-03-27T14:17:16.357Z,1.27
2023-03-27T14:19:28.680Z,2.22
2023-03-27T14:21:49.675Z,2.13
2023-03-27T14:24:03.305Z,1.30
2023-03-27T14:26:14.834Z,1.38
2023-03-27T14:28:49.432Z,1.88
2023-03-27T14:30:54.891Z,2.17
2023-03-27T14:32:57.622Z,1.60
2023-03-27T14:35:12.397Z,1.90
2023-03-27T14:37:30.803Z,1.63
2023-03-27T14:39:42.655Z,2.10
2023-03-27T14:42:01.022Z,1.85
2023-03-27T14:44:13.431Z,1.58
2023-03-27T14:46:27.736Z,1.17
2023-03-27T14:48:47.377Z,1.15
2023-03-27T14:50:58.044Z,6.88
2023-03-27T14:53:13.640Z,1.08
2023-03-27T14:55:34.693Z,1.52
2023-03-27T14:57:47.510Z,1.50
2023-03-27T14:59:58.215Z,1.45
2023-03-27T15:02:20.266Z,1.42
2023-03-27T15:04:30.118Z,0.98
2023-03-27T15:06:56.066Z,1.02
2023-03-27T15:09:00.091Z,0.90
2023-03-27T15:11:19.009Z,1.08
2023-03-27T15:13:38.708Z,1.10
2023-03-27T15:18:06.051Z,1.40
2023-03-27T15:20:18.595Z,1.48
2023-03-27T15:22:31.466Z,3.08
2023-03-27T15:24:57.857Z,1.55
2023-03-27T15:27:00.606Z,1.80
2023-03-27T15:29:22.322Z,1.75
2023-03-27T15:31:30.186Z,1.17
2023-03-27T15:33:52.902Z,1.38
2023-03-27T15:36:01.195Z,1.80
2023-03-27T15:38:17.590Z,1.02
2023-03-27T15:40:46.751Z,1.05
2023-03-27T15:42:53.300Z,1.98
2023-03-27T15:45:04.712Z,1.45
2023-03-27T15:47:22.693Z,2.47
2023-03-27T15:49:35.011Z,2.05
2023-03-27T15:51:46.742Z,2.55
2023-03-27T15:54:01.746Z,2.47
2023-03-27T15:56:17.718Z,1.75
2023-03-27T15:58:45.585Z,4.63
2023-03-27T16:00:48.640Z,3.50
2023-03-27T16:03:13.166Z,2.60
2023-03-27T16:05:18.180Z,3.92
2023-03-27T16:07:33.843Z,3.67
2023-03-27T16:09:49.623Z,3.88
2023-03-27T16:12:11.600Z,3.05
2023-03-27T16:14:19.321Z,2.28
2023-03-27T16:16:41.133Z,3.20
2023-03-27T16:18:49.455Z,3.03
2023-03-27T16:21:13.214Z,2.13
2023-03-27T16:23:21.422Z,2.60
2023-03-27T16:25:35.426Z,1.70
2023-03-27T16:27:58.721Z,2.00
2023-03-27T16:30:08.019Z,2.03
2023-03-27T16:32:22.202Z,1.90
2023-03-27T16:34:44.497Z,2.17
2023-03-27T16:36:55.090Z,2.88
2023-03-27T16:39:07.062Z,2.45
2023-03-27T16:41:20.529Z,1.80
2023-03-27T16:43:22.656Z,1.95
2023-03-27T16:45:24.170Z,1.40
2023-03-27T16:47:25.660Z,1.00
2023-03-27T16:49:27.102Z,1.70
2023-03-27T16:51:29.030Z,1.70
2023-03-27T16:56:01.955Z,1.30
2023-03-27T16:58:21.744Z,2.00
2023-03-27T17:00:28.799Z,3.13
2023-03-27T17:04:59.257Z,2.00
2023-03-27T17:07:21.289Z,2.50
2023-03-27T17:09:33.061Z,1.63
2023-03-27T17:11:34.853Z,2.33
2023-03-27T17:13:36.622Z,1.70
2023-03-27T17:15:38.751Z,2.30
2023-03-27T17:17:40.241Z,1.85
2023-03-27T17:19:41.683Z,1.30
2023-03-27T17:21:43.111Z,1.92
2023-03-27T17:23:47.632Z,1.60
2023-03-27T17:25:49.086Z,3.30
2023-03-27T17:27:50.560Z,1.50
2023-03-27T17:29:51.979Z,2.20
2023-03-27T17:31:54.143Z,2.63
2023-03-27T17:33:55.623Z,2.45
2023-03-27T17:35:57.538Z,7.68
2023-03-27T17:37:59.153Z,3.65
2023-03-27T17:40:00.955Z,4.65
2023-03-27T17:42:02.358Z,2.97
2023-03-27T17:44:04.727Z,3.38
2023-03-27T17:46:08.126Z,3.45
2023-03-27T17:48:11.474Z,2.72
2023-03-27T17:50:12.898Z,2.67
2023-03-27T17:52:14.462Z,3.85
2023-03-27T17:54:15.979Z,2.85
2023-03-27T17:56:17.411Z,4.30
2023-03-27T17:58:21.996Z,5.72
2023-03-27T18:00:25.430Z,3.03
2023-03-27T18:02:27.106Z,8.43
2023-03-27T18:04:29.414Z,7.35
2023-03-27T18:06:30.840Z,43.60
2023-03-27T18:08:32.324Z,41.65
2023-03-27T18:10:35.332Z,38.58
2023-03-27T18:12:37.201Z,18.33
2023-03-27T18:14:39.257Z,14.50
2023-03-27T18:16:40.813Z,26.83
2023-03-27T18:18:42.366Z,9.60
2023-03-27T18:20:49.483Z,4.05
2023-03-27T18:22:50.867Z,4.30
2023-03-27T18:24:52.399Z,3.03
2023-03-27T18:26:55.531Z,4.68
2023-03-27T18:28:57.768Z,4.72
2023-03-27T18:31:03.850Z,5.82
2023-03-27T18:33:05.429Z,4.80
2023-03-27T18:35:08.184Z,3.88
2023-03-27T18:37:09.583Z,3.67
2023-03-27T18:39:11.465Z,4.10
2023-03-27T18:41:12.886Z,4.18
2023-03-27T18:43:14.310Z,4.28
2023-03-27T18:45:16.880Z,5.10
2023-03-27T18:47:18.312Z,5.95
2023-03-27T18:49:24.677Z,9.38
2023-03-27T18:51:26.840Z,13.57
2023-03-27T18:53:28.957Z,12.35
2023-03-27T18:55:32.334Z,8.18
2023-03-27T18:57:34.436Z,14.70
2023-03-27T18:59:35.922Z,7.00
2023-03-27T19:01:37.382Z,6.50
2023-03-27T19:03:39.258Z,6.63
2023-03-27T19:05:40.904Z,7.70
2023-03-27T19:07:45.024Z,8.23
2023-03-27T19:09:46.972Z,9.50
2023-03-27T19:11:48.425Z,12.10
2023-03-27T19:13:49.871Z,8.38
2023-03-27T19:15:51.320Z,7.97
2023-03-27T19:17:52.929Z,9.77
2023-03-27T19:19:54.940Z,7.53
2023-03-27T19:21:56.387Z,8.90
2023-03-27T19:23:57.836Z,7.15
2023-03-27T19:26:12.673Z,7.10
2023-03-27T19:28:14.335Z,7.38
2023-03-27T19:30:15.991Z,8.65
2023-03-27T19:32:17.441Z,11.70
2023-03-27T19:34:19.022Z,13.27
2023-03-27T19:36:20.432Z,9.32
2023-03-27T19:38:21.870Z,9.60
2023-03-27T19:40:23.299Z,10.50
2023-03-27T19:42:24.714Z,7.95
2023-03-27T19:44:28.026Z,6.95
2023-03-27T19:46:29.507Z,7.50
2023-03-27T19:48:31.141Z,11.10
2023-03-27T19:50:33.276Z,8.27
2023-03-27T19:52:34.930Z,8.73
2023-03-27T19:54:36.366Z,9.68
2023-03-27T19:56:39.257Z,14.65
2023-03-27T19:58:40.791Z,11.60
2023-03-27T20:00:44.399Z,13.32
2023-03-27T20:02:46.109Z,15.95
2023-03-27T20:04:47.709Z,13.55
2023-03-27T20:06:49.467Z,9.57
2023-03-27T20:08:50.957Z,11.65
2023-03-27T20:10:52.385Z,10.02
2023-03-27T20:12:53.852Z,8.57
2023-03-27T20:15:07.593Z,10.13
2023-03-27T20:17:27.682Z,7.88
2023-03-27T20:19:31.080Z,7.15
2023-03-27T20:21:37.786Z,7.65
2023-03-27T20:23:42.109Z,8.77
2023-03-27T20:25:44.282Z,8.18
2023-03-27T20:27:45.737Z,9.30
2023-03-27T20:29:47.624Z,8.45
2023-03-27T20:31:49.225Z,10.13
2023-03-27T20:33:53.143Z,8.75
2023-03-27T20:35:54.895Z,7.75
2023-03-27T20:37:57.933Z,10.20
2023-03-27T20:40:01.971Z,10.25
2023-03-27T20:42:04.038Z,8.13
2023-03-27T20:44:15.857Z,6.72
2023-03-27T20:46:22.278Z,8.43
2023-03-27T20:48:24.040Z,9.77
2023-03-27T20:50:31.174Z,8.88
2023-03-27T20:52:32.688Z,7.15
2023-03-27T20:54:34.092Z,8.73
2023-03-27T20:56:35.936Z,11.15
2023-03-27T20:58:38.237Z,9.40
2023-03-27T21:00:40.619Z,10.07
2023-03-27T21:02:42.180Z,9.23
2023-03-27T21:04:44.085Z,10.73
2023-03-27T21:06:45.503Z,9.95
2023-03-27T21:08:47.327Z,11.18
2023-03-27T21:10:52.287Z,11.52
2023-03-27T21:12:56.562Z,12.57
2023-03-27T21:14:57.971Z,12.52
2023-03-27T21:16:59.811Z,11.10
2023-03-27T21:19:01.440Z,13.35
2023-03-27T21:21:02.959Z,9.63
2023-03-27T21:23:04.442Z,9.43
2023-03-27T21:25:06.564Z,11.77
2023-03-27T21:27:08.397Z,15.95
2023-03-27T21:29:10.880Z,11.73
2023-03-27T21:31:12.388Z,9.65
2023-03-27T21:33:15.953Z,10.95
2023-03-27T21:35:17.753Z,11.70
2023-03-27T21:37:19.205Z,8.63
2023-03-27T21:39:20.679Z,13.88
2023-03-27T21:41:22.119Z,25.38
2023-03-27T21:43:23.595Z,12.02
2023-03-27T21:45:25.920Z,31.55
2023-03-27T21:47:37.294Z,29.55
2023-03-27T21:49:46.344Z,26.27
2023-03-27T21:51:47.854Z,27.33
2023-03-27T21:53:49.301Z,15.52
2023-03-27T21:55:50.766Z,14.85
2023-03-27T21:57:52.376Z,13.88
2023-03-27T21:59:53.854Z,15.10
2023-03-27T22:01:55.522Z,17.05
2023-03-27T22:04:02.122Z,18.15
2023-03-27T22:06:12.498Z,16.77
2023-03-27T22:08:15.049Z,15.20
2023-03-27T22:10:16.845Z,16.27
2023-03-27T22:12:18.295Z,13.63
2023-03-27T22:14:19.743Z,13.57
2023-03-27T22:16:21.262Z,12.07
2023-03-27T22:18:23.676Z,14.45
2023-03-27T22:20:25.841Z,13.82
2023-03-27T22:22:27.259Z,15.43
2023-03-27T22:24:28.797Z,16.20
2023-03-27T22:26:31.844Z,13.50
2023-03-27T22:28:33.233Z,14.20
2023-03-27T22:30:34.700Z,13.05
2023-03-27T22:32:36.341Z,10.98
2023-03-27T22:34:37.799Z,13.75
2023-03-27T22:36:39.195Z,11.27
2023-03-27T22:38:40.876Z,11.85
2023-03-27T22:40:42.435Z,11.95
2023-03-27T22:42:43.880Z,13.18
2023-03-27T22:44:45.425Z,12.70
2023-03-27T22:46:46.984Z,10.90
2023-03-27T22:48:52.896Z,8.48
2023-03-27T22:50:55.432Z,9.48
2023-03-27T22:52:57.002Z,14.35
2023-03-27T22:54:58.439Z,10.30
2023-03-27T22:56:59.937Z,13.30
2023-03-27T22:59:01.550Z,13.50
2023-03-27T23:01:03.358Z,16.23
2023-03-27T23:03:04.844Z,13.52
2023-03-27T23:05:06.756Z,14.02
2023-03-27T23:07:08.151Z,15.10
2023-03-27T23:09:09.806Z,23.05
2023-03-27T23:11:12.923Z,19.05
2023-03-27T23:13:14.966Z,13.90
2023-03-27T23:15:16.416Z,11.65
2023-03-27T23:17:31.969Z,10.25
2023-03-27T23:19:33.443Z,10.98
2023-03-27T23:21:34.925Z,17.23
2023-03-27T23:23:37.158Z,15.30
2023-03-27T23:25:40.062Z,12.50
2023-03-27T23:27:43.082Z,12.50
2023-03-27T23:29:44.506Z,12.02
2023-03-27T23:31:46.237Z,13.45
2023-03-27T23:33:48.620Z,16.58
2023-03-27T23:35:50.131Z,14.65
2023-03-27T23:37:51.535Z,17.17
2023-03-27T23:39:52.910Z,16.75
2023-03-27T23:41:54.448Z,15.27
2023-03-27T23:43:55.966Z,17.42
2023-03-27T23:45:59.556Z,17.45
2023-03-27T23:48:01.398Z,17.92
2023-03-27T23:50:02.882Z,19.25
2023-03-27T23:52:04.402Z,16.88
2023-03-27T23:54:06.153Z,17.52
2023-03-27T23:56:07.984Z,17.58
2023-03-27T23:58:09.504Z,18.48
